Time;durP1;ratioP1;P1;durP2;ratioP2;P2;SDS_P1;SDS_P2;PMS_P1;PMS_P2;Temp;Humidity;BMP_temperature;BMP_pressure;BME280_temperature;BME280_humidity;BME280_pressure;Samples;Min_cycle;Max_cycle;Signal;HPM_P1;HPM_P2
2022/08/10 00:00:56;;;;;;;1.53;1.43;;;23.50;21.90;;;;;;10441558;28;20264;-76
2022/08/10 00:05:59;;;;;;;1.80;1.70;;;23.40;21.70;;;;;;10439180;28;20731;-76
2022/08/10 00:11:04;;;;;;;3.53;1.60;;;23.30;21.80;;;;;;10437943;28;20225;-75
2022/08/10 00:16:17;;;;;;;2.17;1.97;;;23.20;22.20;;;;;;10433871;28;20231;-74
2022/08/10 00:21:20;;;;;;;1.80;1.70;;;23.10;22.00;;;;;;10432457;28;20719;-76
2022/08/10 00:26:30;;;;;;;1.90;1.80;;;22.90;22.10;;;;;;10431730;28;20228;-76
2022/08/10 00:31:53;;;;;;;1.83;1.70;;;22.70;22.40;;;;;;10433857;28;20605;-75
2022/08/10 00:37:01;;;;;;;1.57;1.47;;;22.60;22.10;;;;;;10433695;28;20225;-75
2022/08/10 00:42:08;;;;;;;1.70;1.60;;;22.50;22.30;;;;;;10441287;28;20217;-75
2022/08/10 00:47:12;;;;;;;2.10;1.63;;;22.40;23.10;;;;;;10443997;28;20232;-75
2022/08/10 00:52:36;;;;;;;1.77;1.67;;;22.30;22.80;;;;;;10443501;28;20790;-75
2022/08/10 00:57:41;;;;;;;2.20;2.00;;;22.20;22.80;;;;;;10442618;28;20232;-75
2022/08/10 01:02:44;;;;;;;1.50;1.40;;;22.10;23.00;;;;;;10439298;28;20225;-75
2022/08/10 01:08:07;;;;;;;3.27;1.87;;;22.00;22.80;;;;;;10437958;28;20241;-75
2022/08/10 01:13:21;;;;;;;1.80;1.70;;;21.90;23.70;;;;;;10440073;28;20233;-75
2022/08/10 01:18:38;;;;;;;1.73;1.63;;;21.90;23.70;;;;;;10434744;28;20235;-74
2022/08/10 01:24:15;;;;;;;1.80;1.70;;;21.80;23.90;;;;;;10435487;28;20598;-76
2022/08/10 01:29:52;;;;;;;1.70;1.60;;;21.70;23.70;;;;;;10439036;28;20308;-74
2022/08/10 01:35:03;;;;;;;1.70;1.60;;;21.70;24.00;;;;;;10439433;28;20598;-74
2022/08/10 01:40:12;;;;;;;4.00;1.87;;;21.50;24.40;;;;;;10439490;28;20225;-74
2022/08/10 01:45:22;;;;;;;1.80;1.70;;;21.40;24.00;;;;;;10439708;28;20232;-75
2022/08/10 01:50:30;;;;;;;1.60;1.50;;;21.30;24.20;;;;;;10438184;28;20228;-75
2022/08/10 01:55:36;;;;;;;2.10;1.93;;;21.20;24.30;;;;;;10437737;28;20241;-75
2022/08/10 02:00:44;;;;;;;2.17;1.67;;;21.00;24.10;;;;;;10443272;28;20229;-76
2022/08/10 02:05:53;;;;;;;2.00;1.90;;;20.90;24.70;;;;;;10442199;28;20228;-77
2022/08/10 02:10:58;;;;;;;1.80;1.70;;;20.70;24.30;;;;;;10435647;28;20229;-75
2022/08/10 02:16:04;;;;;;;2.10;2.00;;;20.60;24.40;;;;;;10436413;28;20736;-74
2022/08/10 02:21:09;;;;;;;1.80;1.70;;;20.50;24.70;;;;;;10438087;28;20213;-75
2022/08/10 02:26:13;;;;;;;1.97;1.87;;;20.40;24.50;;;;;;10440946;28;20217;-77
2022/08/10 02:31:21;;;;;;;2.07;1.97;;;20.30;24.80;;;;;;10442054;28;20224;-75
2022/08/10 02:36:27;;;;;;;2.13;1.93;;;20.20;26.00;;;;;;10438562;28;20236;-75
2022/08/10 02:41:36;;;;;;;2.00;1.90;;;20.10;25.40;;;;;;10436314;28;20237;-76
2022/08/10 02:47:10;;;;;;;2.03;1.90;;;20.00;25.30;;;;;;10436964;28;20709;-77
2022/08/10 02:52:19;;;;;;;1.80;1.70;;;19.90;25.80;;;;;;10436362;28;20221;-77
2022/08/10 02:57:27;;;;;;;2.27;2.10;;;19.90;25.60;;;;;;10433046;28;20237;-74
2022/08/10 03:02:36;;;;;;;2.20;1.93;;;19.80;25.40;;;;;;10429979;28;20595;-75
2022/08/10 03:07:45;;;;;;;2.00;1.90;;;19.80;25.80;;;;;;10437173;28;20616;-74
2022/08/10 03:12:53;;;;;;;2.90;1.80;;;19.70;25.40;;;;;;10436420;28;20260;-74
2022/08/10 03:17:59;;;;;;;2.03;1.93;;;19.60;25.60;;;;;;10436379;28;20248;-77
2022/08/10 03:23:04;;;;;;;1.80;1.70;;;19.50;25.70;;;;;;10435291;28;20221;-77
2022/08/10 03:28:08;;;;;;;2.00;1.90;;;19.50;25.30;;;;;;10431898;28;20244;-77
2022/08/10 03:33:24;;;;;;;1.70;1.60;;;19.40;25.40;;;;;;10430596;28;20224;-77
2022/08/10 03:38:27;;;;;;;1.90;1.80;;;19.40;26.00;;;;;;10430407;28;20225;-77
2022/08/10 03:43:31;;;;;;;2.00;1.90;;;19.30;25.70;;;;;;10433670;28;20228;-76
2022/08/10 03:48:38;;;;;;;1.87;1.77;;;19.20;25.90;;;;;;10433897;28;20716;-77
2022/08/10 03:53:51;;;;;;;1.67;1.57;;;19.20;26.50;;;;;;10439456;28;20378;-75
2022/08/10 03:59:10;;;;;;;2.60;1.87;;;19.10;25.90;;;;;;10436908;28;20274;-77
2022/08/10 04:04:15;;;;;;;1.90;1.80;;;19.10;26.40;;;;;;10438790;28;20323;-76
2022/08/10 04:09:27;;;;;;;1.90;1.80;;;19.00;26.50;;;;;;10440636;28;20240;-77
2022/08/10 04:14:50;;;;;;;2.13;1.97;;;19.00;26.60;;;;;;10443141;28;20239;-74
2022/08/10 04:19:57;;;;;;;2.20;2.00;;;19.00;26.30;;;;;;10444771;28;20610;-75
2022/08/10 04:25:03;;;;;;;2.97;2.00;;;19.00;27.00;;;;;;10438942;28;20237;-76
2022/08/10 04:30:08;;;;;;;3.03;1.93;;;19.00;26.80;;;;;;10441892;28;20227;-76
2022/08/10 04:35:15;;;;;;;2.20;2.00;;;19.00;26.80;;;;;;10443891;28;20744;-76
2022/08/10 04:40:19;;;;;;;2.47;2.00;;;19.00;27.00;;;;;;10442803;28;20762;-76
2022/08/10 04:45:33;;;;;;;1.77;1.67;;;19.00;26.70;;;;;;10440554;28;20312;-76
2022/08/10 04:50:55;;;;;;;1.70;1.60;;;19.10;26.90;;;;;;10441984;28;20232;-76
2022/08/10 04:56:01;;;;;;;1.90;1.80;;;19.10;27.10;;;;;;10435380;28;20308;-77
2022/08/10 05:01:05;;;;;;;2.10;1.60;;;19.10;26.90;;;;;;10444596;28;20283;-77
2022/08/10 05:06:10;;;;;;;1.90;1.80;;;19.10;26.90;;;;;;10440389;28;20253;-74
2022/08/10 05:11:13;;;;;;;1.90;1.80;;;19.20;27.50;;;;;;10442547;28;20227;-75
2022/08/10 05:16:26;;;;;;;2.03;1.90;;;19.30;27.20;;;;;;10433133;28;20316;-76
2022/08/10 05:21:35;;;;;;;2.20;1.93;;;19.30;27.30;;;;;;10440295;28;20235;-77
2022/08/10 05:26:59;;;;;;;1.70;1.60;;;19.40;27.70;;;;;;10436719;28;20237;-75
2022/08/10 05:32:12;;;;;;;2.07;1.83;;;19.50;27.50;;;;;;10438922;28;20586;-74
2022/08/10 05:37:17;;;;;;;2.60;1.90;;;19.50;27.60;;;;;;10442914;28;20225;-74
2022/08/10 05:42:41;;;;;;;2.30;2.10;;;19.60;28.10;;;;;;10439348;28;20228;-75
2022/08/10 05:47:44;;;;;;;2.90;1.97;;;19.70;28.00;;;;;;10437648;28;20237;-76
2022/08/10 05:53:09;;;;;;;2.47;1.83;;;19.80;27.90;;;;;;10436494;28;20730;-76
2022/08/10 05:58:32;;;;;;;1.80;1.70;;;19.90;28.40;;;;;;10438657;28;20257;-75
2022/08/10 06:03:39;;;;;;;2.57;1.83;;;20.00;28.10;;;;;;10443995;28;20736;-76
2022/08/10 06:08:47;;;;;;;3.00;2.00;;;20.20;28.50;;;;;;10439956;28;20260;-76
2022/08/10 06:19:16;;;;;;;2.10;1.90;;;20.50;28.60;;;;;;10424219;28;20245;-74
2022/08/10 06:24:23;;;;;;;2.13;1.60;;;20.70;28.20;;;;;;10429585;28;20877;-74
2022/08/10 06:29:32;;;;;;;1.70;1.60;;;20.80;28.30;;;;;;10428632;28;20241;-75
2022/08/10 06:34:40;;;;;;;2.93;1.80;;;21.00;28.20;;;;;;10426094;28;20592;-72
2022/08/10 06:39:45;;;;;;;1.80;1.70;;;21.20;28.30;;;;;;10429336;28;20231;-74
2022/08/10 06:44:55;;;;;;;1.77;1.60;;;21.50;28.10;;;;;;10424040;28;20603;-75
2022/08/10 06:50:02;;;;;;;5.43;1.40;;;21.70;28.10;;;;;;10430058;28;20331;-74
2022/08/10 06:55:14;;;;;;;2.77;1.53;;;21.90;28.00;;;;;;10425177;28;20221;-74
2022/08/10 07:00:20;;;;;;;1.97;1.70;;;22.20;27.90;;;;;;10428478;28;20244;-73
2022/08/10 07:05:28;;;;;;;1.83;1.57;;;22.40;27.60;;;;;;10424549;28;20302;-74
2022/08/10 07:10:34;;;;;;;2.60;1.80;;;22.60;27.50;;;;;;10427102;28;20240;-74
2022/08/10 07:15:50;;;;;;;2.43;1.97;;;22.80;27.20;;;;;;10433855;28;20239;-77
2022/08/10 07:21:04;;;;;;;1.80;1.70;;;22.90;27.30;;;;;;10430328;28;20233;-76
2022/08/10 07:26:10;;;;;;;1.90;1.80;;;23.20;27.50;;;;;;10434715;28;20237;-74
2022/08/10 07:31:17;;;;;;;1.90;1.80;;;23.30;27.10;;;;;;10426861;28;20216;-75
2022/08/10 07:36:44;;;;;;;3.63;1.80;;;23.50;27.30;;;;;;10426185;28;20240;-75
2022/08/10 07:41:52;;;;;;;3.23;1.77;;;23.70;27.00;;;;;;10421092;28;20220;-73
2022/08/10 07:47:00;;;;;;;2.50;1.80;;;23.90;27.20;;;;;;10420862;28;20759;-74
2022/08/10 07:52:06;;;;;;;2.67;1.70;;;24.10;26.50;;;;;;10427875;28;20218;-76
2022/08/10 07:57:17;;;;;;;1.70;1.60;;;24.40;26.60;;;;;;10424578;28;20225;-75
2022/08/10 08:02:38;;;;;;;3.73;1.70;;;24.60;26.20;;;;;;10431824;28;20610;-75
2022/08/10 08:07:45;;;;;;;1.83;1.60;;;24.80;26.00;;;;;;10438530;28;20319;-74
2022/08/10 08:12:51;;;;;;;3.60;1.90;;;25.10;25.90;;;;;;10430662;28;20305;-75
2022/08/10 08:17:56;;;;;;;3.47;1.60;;;25.30;25.20;;;;;;10432377;28;20270;-75
2022/08/10 08:23:04;;;;;;;1.90;1.80;;;25.60;25.20;;;;;;10433818;28;20300;-74
2022/08/10 08:28:30;;;;;;;1.70;1.60;;;25.80;25.00;;;;;;10432233;28;20621;-75
2022/08/10 08:33:34;;;;;;;2.27;1.50;;;26.00;24.50;;;;;;10431847;28;20239;-74
2022/08/10 08:38:46;;;;;;;1.80;1.70;;;26.20;24.50;;;;;;10434350;28;20225;-75
2022/08/10 08:44:02;;;;;;;6.93;1.80;;;26.50;24.30;;;;;;10431169;28;20253;-75
2022/08/10 08:49:20;;;;;;;1.80;1.50;;;26.70;23.60;;;;;;10431191;28;20212;-76
2022/08/10 08:54:55;;;;;;;1.40;1.30;;;26.90;23.20;;;;;;10455289;28;20244;-80
2022/08/10 09:00:09;;;;;;;1.60;1.50;;;27.10;22.30;;;;;;10447172;28;20225;-80
2022/08/10 09:05:31;;;;;;;2.53;1.50;;;27.30;21.90;;;;;;10449704;28;20267;-78
2022/08/10 09:11:00;;;;;;;1.30;1.13;;;27.40;22.40;;;;;;10459501;28;20229;-79
2022/08/10 09:16:20;;;;;;;1.50;1.40;;;27.40;21.40;;;;;;10459617;28;20316;-80
2022/08/10 09:21:33;;;;;;;3.90;1.90;;;27.50;21.00;;;;;;10441046;28;20235;-76
2022/08/10 09:26:49;;;;;;;1.70;1.60;;;27.60;21.10;;;;;;10435969;28;20224;-77
2022/08/10 09:32:02;;;;;;;3.23;2.00;;;27.60;21.00;;;;;;10435019;28;20233;-77
2022/08/10 09:37:32;;;;;;;1.50;1.40;;;27.70;20.50;;;;;;10444211;28;20715;-80
2022/08/10 09:43:03;;;;;;;1.80;1.70;;;27.90;20.40;;;;;;10442443;28;20229;-76
2022/08/10 09:48:45;;;;;;;3.33;1.63;;;28.10;20.20;;;;;;10437634;28;20232;-76
2022/08/10 09:53:59;;;;;;;1.57;1.47;;;28.30;20.30;;;;;;10437687;28;20220;-78
2022/08/10 09:59:10;;;;;;;1.53;1.43;;;28.50;19.30;;;;;;10439374;28;20224;-78
2022/08/10 10:04:42;;;;;;;1.43;1.33;;;28.50;19.40;;;;;;10432088;28;20241;-78
2022/08/10 10:09:53;;;;;;;1.27;1.27;;;28.70;19.00;;;;;;10438494;28;20228;-78
2022/08/10 10:15:21;;;;;;;1.50;1.40;;;28.80;19.40;;;;;;10438822;28;20233;-79
2022/08/10 10:20:37;;;;;;;1.60;1.50;;;28.90;18.70;;;;;;10441700;28;20240;-78
2022/08/10 10:25:48;;;;;;;1.37;1.27;;;29.10;18.00;;;;;;10443758;28;20748;-79
2022/08/10 10:31:04;;;;;;;1.23;1.20;;;29.10;18.20;;;;;;10444897;28;20229;-79
2022/08/10 10:36:22;;;;;;;1.60;1.40;;;29.20;18.20;;;;;;10444333;28;20571;-78
2022/08/10 10:41:35;;;;;;;1.50;1.40;;;29.30;18.40;;;;;;10444564;28;20231;-78
2022/08/10 10:47:09;;;;;;;2.67;1.33;;;29.50;16.80;;;;;;10444003;28;20221;-79
2022/08/10 10:52:28;;;;;;;2.53;1.50;;;29.50;17.20;;;;;;10439743;28;20231;-80
2022/08/10 10:57:37;;;;;;;2.30;1.30;;;29.50;17.20;;;;;;10456290;28;20241;-81
2022/08/10 11:03:21;;;;;;;1.37;1.27;;;29.50;17.60;;;;;;10449865;28;20228;-81
2022/08/10 11:08:31;;;;;;;1.37;1.30;;;29.60;17.00;;;;;;10448061;28;20245;-78
2022/08/10 11:13:40;;;;;;;1.50;1.40;;;29.70;17.00;;;;;;10434368;28;20235;-81
2022/08/10 11:19:13;;;;;;;2.03;1.47;;;29.90;17.20;;;;;;10427717;28;20225;-79
2022/08/10 11:24:25;;;;;;;1.40;1.30;;;30.00;16.50;;;;;;10412653;28;20740;-78
2022/08/10 11:29:57;;;;;;;2.37;1.37;;;30.00;16.40;;;;;;10412615;28;20233;-78
2022/08/10 11:35:09;;;;;;;1.00;1.00;;;30.00;16.30;;;;;;10413396;28;20236;-79
2022/08/10 11:40:23;;;;;;;1.30;1.30;;;30.00;15.90;;;;;;10413379;28;20260;-79
2022/08/10 11:45:30;;;;;;;1.60;1.50;;;30.00;15.90;;;;;;10413859;28;20234;-79
2022/08/10 11:50:39;;;;;;;1.10;1.10;;;30.10;15.90;;;;;;10414114;28;20229;-78
2022/08/10 11:55:48;;;;;;;1.50;1.40;;;30.20;15.70;;;;;;10412402;28;20234;-77
2022/08/10 12:00:52;;;;;;;1.80;1.43;;;30.20;15.10;;;;;;10413157;28;20294;-78
2022/08/10 12:05:56;;;;;;;1.30;1.20;;;30.30;15.70;;;;;;10412935;28;20244;-77
2022/08/10 12:11:01;;;;;;;1.30;1.30;;;30.40;15.60;;;;;;10413183;28;20232;-79
2022/08/10 12:16:09;;;;;;;1.50;1.40;;;30.40;14.80;;;;;;10411477;28;20244;-79
2022/08/10 12:21:20;;;;;;;2.60;1.40;;;30.50;14.90;;;;;;10412897;28;20229;-78
2022/08/10 12:26:28;;;;;;;1.13;1.13;;;30.40;14.10;;;;;;10418487;28;20225;-79
2022/08/10 12:31:39;;;;;;;1.23;1.23;;;30.30;14.10;;;;;;10420973;28;20236;-79
2022/08/10 12:36:48;;;;;;;1.23;1.20;;;30.30;14.00;;;;;;10421050;28;20238;-78
2022/08/10 12:41:58;;;;;;;1.43;1.40;;;30.30;14.20;;;;;;10421337;28;20225;-77
2022/08/10 12:47:07;;;;;;;1.53;1.30;;;30.40;13.40;;;;;;10419712;28;20231;-78
2022/08/10 12:52:20;;;;;;;1.10;1.10;;;30.50;13.50;;;;;;10420095;28;20229;-78
2022/08/10 12:57:25;;;;;;;1.33;1.27;;;30.50;13.40;;;;;;10420657;28;20695;-78
2022/08/10 13:02:32;;;;;;;1.43;1.30;;;30.50;13.40;;;;;;10419358;28;20230;-79
2022/08/10 13:07:38;;;;;;;1.30;1.20;;;30.40;13.20;;;;;;10419769;28;20328;-79
2022/08/10 13:13:03;;;;;;;1.13;1.13;;;30.40;13.40;;;;;;10420362;28;20732;-79
2022/08/10 13:18:10;;;;;;;1.30;1.30;;;30.40;13.30;;;;;;10420822;28;20237;-79
2022/08/10 13:23:25;;;;;;;1.40;1.30;;;30.40;13.20;;;;;;10422499;28;21036;-79
2022/08/10 13:28:42;;;;;;;2.67;1.30;;;30.50;13.00;;;;;;10422351;28;20238;-79
2022/08/10 13:33:50;;;;;;;1.87;1.27;;;30.50;12.70;;;;;;10422071;28;20233;-78
2022/08/10 13:39:14;;;;;;;1.60;1.30;;;30.60;12.90;;;;;;10420873;28;20233;-78
2022/08/10 13:44:30;;;;;;;1.50;1.40;;;30.70;13.20;;;;;;10421513;28;20649;-78
2022/08/10 13:49:45;;;;;;;1.30;1.30;;;30.80;12.20;;;;;;10419727;28;20225;-78
2022/08/10 13:54:50;;;;;;;1.30;1.20;;;30.80;12.10;;;;;;10419257;28;20233;-79
2022/08/10 13:59:57;;;;;;;1.67;1.40;;;30.80;12.80;;;;;;10418826;28;20605;-77
2022/08/10 14:05:26;;;;;;;1.53;1.13;;;30.80;12.20;;;;;;10418297;28;20240;-78
2022/08/10 14:10:37;;;;;;;1.43;1.20;;;30.80;11.50;;;;;;10418184;28;20225;-78
2022/08/10 14:16:06;;;;;;;1.13;1.10;;;30.80;11.60;;;;;;10417762;28;20238;-77
2022/08/10 14:21:10;;;;;;;1.40;1.30;;;30.70;11.50;;;;;;10418929;28;20229;-77
2022/08/10 14:26:18;;;;;;;1.10;1.10;;;30.60;12.40;;;;;;10417633;28;20301;-78
2022/08/10 14:31:28;;;;;;;1.37;1.27;;;30.60;11.80;;;;;;10417238;28;20321;-78
2022/08/10 14:36:41;;;;;;;3.50;1.40;;;30.60;11.90;;;;;;10417827;28;20269;-78
2022/08/10 14:41:46;;;;;;;1.50;1.40;;;30.70;11.20;;;;;;10417546;28;20229;-77
2022/08/10 14:47:14;;;;;;;1.20;1.20;;;30.70;11.50;;;;;;10414760;28;20780;-77
2022/08/10 14:52:41;;;;;;;1.27;1.17;;;30.70;11.20;;;;;;10414692;28;20237;-77
2022/08/10 14:57:47;;;;;;;1.77;1.30;;;30.80;11.20;;;;;;10414157;28;20722;-79
2022/08/10 15:03:15;;;;;;;1.50;1.40;;;30.80;11.20;;;;;;10414319;28;20222;-78
2022/08/10 15:08:43;;;;;;;1.40;1.30;;;30.80;10.90;;;;;;10414543;28;20650;-79
2022/08/10 15:13:51;;;;;;;1.27;1.27;;;30.90;11.00;;;;;;10414053;28;20233;-78
2022/08/10 15:19:20;;;;;;;1.40;1.30;;;30.90;11.00;;;;;;10413613;28;20229;-78
2022/08/10 15:25:03;;;;;;;1.57;1.33;;;31.00;11.10;;;;;;10413256;28;20229;-78
2022/08/10 15:30:09;;;;;;;1.50;1.40;;;31.00;11.20;;;;;;10412373;28;20229;-75
2022/08/10 15:40:41;;;;;;;1.53;1.40;;;31.10;11.10;;;;;;10413190;28;20234;-78
2022/08/10 15:46:04;;;;;;;1.53;1.33;;;31.00;11.10;;;;;;10412476;28;20699;-78
2022/08/10 15:51:19;;;;;;;1.30;1.30;;;31.00;11.10;;;;;;10412730;28;20241;-77
2022/08/10 15:56:30;;;;;;;1.63;1.23;;;31.00;11.10;;;;;;10411948;28;20236;-79
2022/08/10 16:01:38;;;;;;;1.80;1.40;;;30.90;11.00;;;;;;10421702;28;20299;-77
2022/08/10 16:07:08;;;;;;;1.40;1.30;;;30.90;11.00;;;;;;10424548;28;20247;-78
2022/08/10 16:12:15;;;;;;;1.50;1.40;;;30.90;10.60;;;;;;10425527;28;20764;-78
2022/08/10 16:17:20;;;;;;;1.20;1.20;;;30.90;10.90;;;;;;10425338;28;20233;-76
2022/08/10 16:22:30;;;;;;;1.40;1.30;;;30.90;10.50;;;;;;10425836;28;20225;-78
2022/08/10 16:27:40;;;;;;;1.50;1.40;;;30.70;10.10;;;;;;10424993;28;20328;-78
2022/08/10 16:32:44;;;;;;;1.20;1.20;;;30.70;10.90;;;;;;10425365;28;20233;-78
2022/08/10 16:37:51;;;;;;;1.27;1.27;;;30.60;10.90;;;;;;10424394;28;20317;-78
2022/08/10 16:43:03;;;;;;;1.40;1.30;;;30.70;10.90;;;;;;10424430;28;20235;-79
2022/08/10 16:48:09;;;;;;;1.40;1.30;;;30.70;10.90;;;;;;10424923;28;20238;-77
2022/08/10 16:53:16;;;;;;;1.50;1.40;;;30.80;10.90;;;;;;10424559;28;20237;-79
2022/08/10 16:58:26;;;;;;;1.43;1.33;;;30.80;11.50;;;;;;10423931;28;20251;-77
2022/08/10 17:03:32;;;;;;;1.27;1.10;;;30.70;10.90;;;;;;10424144;28;20260;-78
2022/08/10 17:09:00;;;;;;;1.40;1.30;;;30.70;10.90;;;;;;10425007;28;20244;-78
2022/08/10 17:14:09;;;;;;;1.30;1.30;;;30.70;10.90;;;;;;10416928;28;20221;-78
2022/08/10 17:19:15;;;;;;;1.47;1.37;;;30.60;10.90;;;;;;10417552;28;20291;-78
2022/08/10 17:24:22;;;;;;;1.30;1.30;;;30.50;10.80;;;;;;10417749;28;20253;-78
2022/08/10 17:29:30;;;;;;;1.73;1.40;;;30.50;10.80;;;;;;10416491;28;20710;-78
2022/08/10 17:34:57;;;;;;;3.97;1.40;;;30.50;10.80;;;;;;10416804;28;20645;-79
2022/08/10 17:40:07;;;;;;;1.40;1.30;;;30.50;10.80;;;;;;10416305;28;20243;-77
2022/08/10 17:45:18;;;;;;;3.23;1.20;;;30.50;10.80;;;;;;10416462;28;20264;-77
2022/08/10 17:50:43;;;;;;;1.33;1.30;;;30.40;10.80;;;;;;10415937;28;20234;-79
2022/08/10 17:55:53;;;;;;;1.60;1.50;;;30.30;10.70;;;;;;10415467;28;20342;-79
2022/08/10 18:01:00;;;;;;;1.70;1.60;;;30.30;10.70;;;;;;10415860;28;20229;-79
2022/08/10 18:06:23;;;;;;;1.80;1.57;;;30.20;10.60;;;;;;10415111;28;20230;-78
2022/08/10 18:11:32;;;;;;;1.60;1.50;;;30.10;11.10;;;;;;10416220;28;20229;-79
2022/08/10 18:16:35;;;;;;;1.70;1.60;;;30.00;11.10;;;;;;10414239;28;20229;-79
2022/08/10 18:21:46;;;;;;;1.63;1.40;;;29.90;11.20;;;;;;10414749;28;20225;-78
2022/08/10 18:26:52;;;;;;;1.53;1.50;;;29.80;11.30;;;;;;10422117;28;20630;-79
2022/08/10 18:31:58;;;;;;;1.60;1.50;;;29.70;11.50;;;;;;10422504;28;20229;-79
2022/08/10 18:37:05;;;;;;;1.60;1.50;;;29.70;11.60;;;;;;10422100;28;20229;-79
2022/08/10 18:42:16;;;;;;;1.53;1.43;;;29.60;11.90;;;;;;10421031;28;20229;-78
2022/08/10 18:47:28;;;;;;;1.50;1.43;;;29.40;12.40;;;;;;10419783;28;20244;-79
2022/08/10 18:52:33;;;;;;;6.10;1.50;;;29.30;12.30;;;;;;10419393;28;20233;-79
2022/08/10 18:58:12;;;;;;;1.63;1.33;;;29.10;12.30;;;;;;10418732;28;20525;-78
2022/08/10 19:03:31;;;;;;;1.50;1.40;;;28.90;12.60;;;;;;10406195;28;20225;-79
2022/08/10 19:09:18;;;;;;;1.67;1.43;;;28.80;12.60;;;;;;10418251;28;20244;-79
2022/08/10 19:14:52;;;;;;;1.90;1.70;;;28.60;12.50;;;;;;10356079;28;20225;-78
2022/08/10 19:20:06;;;;;;;1.80;1.70;;;28.50;13.10;;;;;;10418687;28;20743;-79
2022/08/10 19:25:18;;;;;;;1.57;1.47;;;28.30;13.20;;;;;;10417502;28;20238;-79
2022/08/10 19:30:49;;;;;;;4.33;1.80;;;28.20;13.50;;;;;;10417033;28;20222;-79
2022/08/10 19:36:05;;;;;;;2.57;1.73;;;28.00;13.50;;;;;;10416497;28;20229;-77
2022/08/10 19:41:16;;;;;;;4.40;2.00;;;27.80;13.90;;;;;;10416265;28;20304;-79
2022/08/10 19:46:31;;;;;;;1.60;1.50;;;27.70;14.10;;;;;;10415854;28;20604;-79
2022/08/10 19:51:45;;;;;;;2.20;1.50;;;27.60;14.40;;;;;;10416359;28;20606;-78
2022/08/10 19:57:00;;;;;;;1.70;1.60;;;27.40;14.70;;;;;;10415413;28;20733;-78
2022/08/10 20:02:08;;;;;;;2.80;1.80;;;27.30;14.90;;;;;;10415045;28;20694;-78
2022/08/10 20:07:17;;;;;;;3.37;1.80;;;27.10;15.00;;;;;;10414647;28;20241;-78
2022/08/10 20:12:33;;;;;;;2.23;1.90;;;27.00;15.00;;;;;;10415449;28;20886;-78
2022/08/10 20:17:44;;;;;;;1.77;1.67;;;26.90;15.50;;;;;;10414563;28;20267;-79
2022/08/10 20:23:04;;;;;;;1.70;1.60;;;26.70;15.50;;;;;;10414305;28;20237;-78
2022/08/10 20:28:18;;;;;;;1.80;1.70;;;26.60;15.50;;;;;;10413956;28;20252;-77
2022/08/10 20:33:30;;;;;;;1.90;1.63;;;26.40;15.90;;;;;;10414287;28;20325;-79
2022/08/10 20:38:42;;;;;;;1.73;1.63;;;26.30;16.30;;;;;;10414003;28;20234;-79
2022/08/10 20:44:00;;;;;;;1.63;1.53;;;26.20;16.50;;;;;;10413891;28;20230;-78
2022/08/10 20:49:19;;;;;;;1.90;1.70;;;26.00;16.50;;;;;;10419841;28;20249;-78
2022/08/10 20:54:25;;;;;;;1.80;1.70;;;25.90;16.70;;;;;;10421517;28;20233;-78
2022/08/10 20:59:47;;;;;;;1.93;1.70;;;25.80;16.40;;;;;;10420574;28;20293;-77
2022/08/10 21:05:19;;;;;;;1.87;1.77;;;25.60;17.00;;;;;;10420412;28;20316;-78
2022/08/10 21:10:38;;;;;;;2.10;1.73;;;25.50;17.10;;;;;;10419835;28;20233;-79
2022/08/10 21:15:55;;;;;;;2.13;1.80;;;25.40;17.40;;;;;;10419259;28;20234;-78
2022/08/10 21:21:15;;;;;;;2.10;1.90;;;25.30;17.20;;;;;;10419543;28;20320;-79
2022/08/10 23:00:12;;;;;;;1.93;1.77;;;23.20;20.30;;;;;;10414727;28;20308;-77
2022/08/10 23:05:23;;;;;;;2.10;2.00;;;23.10;19.80;;;;;;10414079;28;20233;-78
2022/08/10 23:10:32;;;;;;;1.97;1.87;;;23.00;19.50;;;;;;10414264;28;20339;-78
2022/08/10 23:21:01;;;;;;;1.70;1.60;;;22.80;20.10;;;;;;10413987;28;20229;-79
2022/08/10 23:26:06;;;;;;;2.00;1.90;;;22.70;19.70;;;;;;10413170;28;20237;-78
2022/08/10 23:31:17;;;;;;;2.10;2.00;;;22.70;20.00;;;;;;10413400;28;20226;-78
2022/08/10 23:36:41;;;;;;;2.10;2.00;;;22.60;20.30;;;;;;10413148;28;20609;-78
2022/08/10 23:41:46;;;;;;;2.97;2.10;;;22.50;20.10;;;;;;10412287;28;20237;-78
2022/08/10 23:47:00;;;;;;;2.30;2.20;;;22.40;20.20;;;;;;10412186;28;20629;-78
2022/08/10 23:52:11;;;;;;;2.47;2.07;;;22.30;20.80;;;;;;10412905;28;20232;-78
2022/08/10 23:57:19;;;;;;;2.13;2.03;;;22.10;21.20;;;;;;10412052;28;20236;-76
